Time;durP1;ratioP1;P1;durP2;ratioP2;P2;SDS_P1;SDS_P2;PMS_P1;PMS_P2;Temp;Humidity;BMP_temperature;BMP_pressure;BME280_temperature;BME280_humidity;BME280_pressure;Samples;Min_cycle;Max_cycle;Signal;HPM_P1;HPM_P2
2023/12/25 00:02:02;;;;;;;1.63;1.53;;;;;;;20.64;50.93;96918.97;4999850;28;20261;-25
2023/12/25 00:04:28;;;;;;;1.70;1.60;;;;;;;20.63;51.15;96930.88;5010638;28;20737;-26
2023/12/25 00:06:55;;;;;;;1.50;1.40;;;;;;;20.63;51.15;96951.31;5011891;28;20264;-25
2023/12/25 00:09:22;;;;;;;1.73;1.63;;;;;;;20.62;51.29;96946.16;5011786;28;20242;-25
2023/12/25 00:11:48;;;;;;;2.37;1.60;;;;;;;20.62;51.24;96947.03;5010856;28;20226;-25
2023/12/25 00:14:15;;;;;;;1.90;1.63;;;;;;;20.62;51.20;96944.47;5009073;28;20222;-25
2023/12/25 00:16:41;;;;;;;1.40;1.30;;;;;;;20.61;51.27;96955.53;5010379;28;20206;-25
2023/12/25 00:19:08;;;;;;;1.80;1.60;;;;;;;20.63;51.15;96953.00;5009689;28;20214;-25
2023/12/25 00:21:36;;;;;;;1.90;1.77;;;;;;;20.61;51.09;96955.53;5011296;28;20226;-25
2023/12/25 00:24:04;;;;;;;1.73;1.63;;;;;;;20.61;51.09;96954.66;5010500;28;20209;-25
2023/12/25 00:26:30;;;;;;;1.70;1.40;;;;;;;20.62;51.30;96964.91;5011356;28;20210;-25
2023/12/25 00:28:57;;;;;;;1.33;1.23;;;;;;;20.60;51.14;96961.44;5011924;28;20284;-25
2023/12/25 00:31:23;;;;;;;1.60;1.50;;;;;;;20.61;51.22;96962.31;5008737;28;20614;-34
2023/12/25 00:33:50;;;;;;;2.00;1.57;;;;;;;20.60;51.19;96971.66;5007332;28;20655;-25
2023/12/25 00:36:16;;;;;;;2.87;1.63;;;;;;;20.59;51.31;96977.59;5007236;28;20205;-25
2023/12/25 00:38:43;;;;;;;1.40;1.23;;;;;;;20.59;51.57;96987.81;5011163;28;20233;-25
2023/12/25 00:41:10;;;;;;;3.27;1.67;;;;;;;20.60;51.34;96998.88;5002795;28;20222;-25
2023/12/25 00:43:36;;;;;;;1.90;1.70;;;;;;;20.59;51.52;96986.94;5011173;28;20198;-25
2023/12/25 00:46:06;;;;;;;2.93;1.90;;;;;;;20.59;51.15;96995.47;5010768;28;20214;-25
2023/12/25 00:48:32;;;;;;;2.50;1.50;;;;;;;20.58;51.50;97000.53;5006339;28;20206;-25
2023/12/25 00:50:59;;;;;;;1.63;1.50;;;;;;;20.58;51.19;96991.19;5010934;28;20204;-25
2023/12/25 00:53:26;;;;;;;1.60;1.50;;;;;;;20.58;51.19;97000.53;5007112;28;20314;-25
2023/12/25 00:55:53;;;;;;;1.50;1.40;;;;;;;20.58;51.31;96993.75;5011540;28;20292;-25
2023/12/25 00:58:20;;;;;;;1.40;1.30;;;;;;;20.58;51.44;96993.75;5011095;28;20198;-25
2023/12/25 01:00:47;;;;;;;1.50;1.40;;;;;;;20.58;51.44;97003.97;5012085;28;20228;-25
2023/12/25 01:03:13;;;;;;;1.70;1.60;;;;;;;20.58;51.15;97003.97;5011250;28;20249;-25
2023/12/25 01:05:40;;;;;;;1.50;1.30;;;;;;;20.58;51.37;96998.84;5011353;28;20276;-25
2023/12/25 01:08:07;;;;;;;2.40;1.60;;;;;;;20.58;51.45;96997.97;5007556;28;20199;-25
2023/12/25 01:10:33;;;;;;;2.00;1.53;;;;;;;20.58;50.84;97000.53;5009651;28;20194;-25
2023/12/25 01:13:00;;;;;;;3.67;1.80;;;;;;;20.58;51.25;97013.28;5009986;28;20225;-25
2023/12/25 01:15:26;;;;;;;1.47;1.37;;;;;;;20.57;51.42;97011.59;5010868;28;20226;-25
2023/12/25 01:17:53;;;;;;;1.60;1.50;;;;;;;20.52;51.27;96996.13;5010225;28;20648;-25
2023/12/25 01:20:21;;;;;;;1.70;1.60;;;;;;;20.58;51.41;97005.63;5010492;28;20279;-25
2023/12/25 01:22:47;;;;;;;1.53;1.40;;;;;;;20.57;51.54;97012.41;5009003;28;20218;-25
2023/12/25 01:25:14;;;;;;;1.90;1.70;;;;;;;20.56;51.35;97007.28;5004625;28;20256;-25
2023/12/25 01:27:41;;;;;;;1.53;1.43;;;;;;;20.56;51.51;97017.50;5004286;28;20222;-31
2023/12/25 01:30:11;;;;;;;1.70;1.60;;;;;;;20.57;51.33;97022.63;5009266;28;20205;-25
2023/12/25 01:32:38;;;;;;;1.73;1.57;;;;;;;20.55;51.25;97029.41;5002983;28;20222;-27
2023/12/25 01:35:05;;;;;;;2.37;1.60;;;;;;;20.56;51.41;97035.34;5006233;28;20222;-25
2023/12/25 01:37:31;;;;;;;1.70;1.60;;;;;;;20.50;51.75;97012.22;5009220;28;20617;-25
2023/12/25 01:39:58;;;;;;;1.40;1.30;;;;;;;20.56;51.25;97027.69;5009998;28;20288;-26
2023/12/25 01:42:24;;;;;;;2.80;1.60;;;;;;;20.56;50.94;97028.56;5008438;28;20875;-25
2023/12/25 01:44:51;;;;;;;1.97;1.50;;;;;;;20.57;51.04;97022.63;5009421;28;20202;-25
2023/12/25 01:47:18;;;;;;;1.60;1.50;;;;;;;20.57;51.00;97025.19;5009359;28;20209;-25
2023/12/25 01:49:45;;;;;;;1.30;1.20;;;;;;;20.58;51.20;97020.97;5002265;28;20669;-25
2023/12/25 01:52:12;;;;;;;1.40;1.30;;;;;;;20.57;51.17;97012.41;5006968;28;20249;-25
2023/12/25 01:54:38;;;;;;;1.77;1.67;;;;;;;20.55;51.45;97015.78;5009601;28;20277;-26
2023/12/25 01:57:05;;;;;;;1.50;1.40;;;;;;;20.58;51.24;97013.28;4994458;28;20260;-25
2023/12/25 01:59:32;;;;;;;1.60;1.50;;;;;;;20.57;51.64;97009.88;5011850;28;20206;-25
2023/12/25 02:01:58;;;;;;;1.57;1.47;;;;;;;20.54;51.40;97002.13;5011624;28;20230;-25
2023/12/25 02:04:25;;;;;;;1.60;1.50;;;;;;;20.57;51.41;97009.88;5006202;28;20614;-25
2023/12/25 02:06:52;;;;;;;2.23;1.57;;;;;;;20.57;51.22;97012.41;5013102;28;20739;-25
2023/12/25 02:09:18;;;;;;;1.40;1.30;;;;;;;20.30;51.15;96957.25;5011027;28;20629;-25
2023/12/25 02:11:45;;;;;;;2.20;1.47;;;;;;;20.58;51.22;97010.75;5014322;28;20771;-25
2023/12/25 02:14:11;;;;;;;1.80;1.67;;;;;;;20.56;50.91;97008.16;5014783;28;20272;-28
2023/12/25 02:16:39;;;;;;;1.40;1.30;;;;;;;20.57;51.11;97014.97;4989293;28;20276;-25
2023/12/25 02:19:32;;;;;;;1.87;1.43;;;;;;;20.46;51.34;96988.31;5012661;28;20598;-25
2023/12/25 02:21:59;;;;;;;1.93;1.73;;;;;;;20.57;51.59;97011.59;5013021;28;20222;-25
2023/12/25 02:24:30;;;;;;;1.77;1.47;;;;;;;20.56;51.51;97015.81;5011328;28;20268;-25
2023/12/25 02:26:56;;;;;;;1.60;1.50;;;;;;;20.56;51.27;97010.72;5014259;28;20226;-25
2023/12/25 02:29:23;;;;;;;2.07;1.50;;;;;;;20.56;51.12;97002.16;5013993;28;20289;-25
2023/12/25 02:31:49;;;;;;;1.70;1.60;;;;;;;20.56;51.35;97003.03;5004010;28;20240;-25
2023/12/25 02:34:16;;;;;;;1.40;1.30;;;;;;;20.57;51.40;96992.00;5013020;28;20276;-25
2023/12/25 02:36:43;;;;;;;1.50;1.40;;;;;;;20.51;51.31;96984.19;5008751;28;20226;-25
2023/12/25 02:39:09;;;;;;;1.60;1.50;;;;;;;20.55;51.07;96972.38;5013006;28;20619;-25
2023/12/25 02:41:36;;;;;;;1.40;1.30;;;;;;;20.55;51.19;96978.34;5006788;28;20222;-25
2023/12/25 02:44:02;;;;;;;1.70;1.60;;;;;;;20.56;51.13;96974.09;5008730;28;20566;-25
2023/12/25 02:46:29;;;;;;;1.90;1.80;;;;;;;20.57;51.03;96996.25;5012961;28;20206;-25
2023/12/25 02:48:56;;;;;;;1.40;1.30;;;;;;;20.57;51.04;96991.16;5007669;28;20202;-25
2023/12/25 02:51:22;;;;;;;1.83;1.53;;;;;;;20.57;50.99;96981.78;5009150;28;20231;-25
2023/12/25 02:53:49;;;;;;;1.40;1.30;;;;;;;20.56;51.30;96992.84;5008295;28;20226;-25
2023/12/25 02:56:15;;;;;;;1.30;1.20;;;;;;;20.57;51.29;96983.50;5013089;28;20285;-25
2023/12/25 02:58:42;;;;;;;1.73;1.63;;;;;;;20.57;51.29;96980.94;4997900;28;20209;-25
2023/12/25 03:01:09;;;;;;;1.10;1.10;;;;;;;20.57;51.15;96983.50;5006348;28;20261;-25
2023/12/25 03:03:35;;;;;;;1.40;1.30;;;;;;;20.57;51.19;96984.34;5012624;28;20230;-25
2023/12/25 03:06:02;;;;;;;1.07;1.07;;;;;;;20.58;51.14;96983.53;5004143;28;20576;-25
2023/12/25 03:08:29;;;;;;;2.13;1.60;;;;;;;20.58;51.27;96975.00;5012785;28;20210;-25
2023/12/25 03:10:55;;;;;;;1.60;1.50;;;;;;;20.58;51.42;96977.56;5009186;28;20362;-25
2023/12/25 03:13:22;;;;;;;1.40;1.30;;;;;;;20.58;51.31;96987.78;5010961;28;20202;-25
2023/12/25 03:15:49;;;;;;;1.50;1.40;;;;;;;20.59;51.33;96986.94;5005981;28;20230;-25
2023/12/25 03:18:15;;;;;;;1.63;1.33;;;;;;;20.58;51.14;96993.75;5013170;28;20198;-25
2023/12/25 03:20:42;;;;;;;1.50;1.40;;;;;;;20.58;51.19;96977.56;5011404;28;20195;-25
2023/12/25 03:23:09;;;;;;;1.37;1.27;;;;;;;20.59;51.25;96976.72;5011882;28;20709;-25
2023/12/25 03:25:35;;;;;;;2.03;1.30;;;;;;;20.57;51.35;96974.13;5009703;28;20657;-25
2023/12/25 03:28:02;;;;;;;1.20;1.20;;;;;;;20.57;51.28;96973.28;5010714;28;20653;-25
2023/12/25 03:30:28;;;;;;;1.40;1.30;;;;;;;20.56;51.30;96985.19;5009014;28;20210;-31
2023/12/25 03:32:55;;;;;;;1.63;1.50;;;;;;;20.58;51.19;96992.88;5011673;28;20250;-25
2023/12/25 03:35:22;;;;;;;1.40;1.30;;;;;;;20.56;51.01;96989.41;5010073;28;20565;-25
2023/12/25 03:37:49;;;;;;;1.20;1.20;;;;;;;20.56;51.30;96974.97;5012558;28;20202;-25
2023/12/25 03:40:15;;;;;;;1.40;1.30;;;;;;;20.56;51.30;96980.06;5007787;28;20198;-25
2023/12/25 03:42:42;;;;;;;1.50;1.40;;;;;;;20.56;51.05;96982.63;5006724;28;20306;-25
2023/12/25 03:45:08;;;;;;;1.20;1.20;;;;;;;20.57;51.15;96971.56;5006517;28;20203;-25
2023/12/25 03:47:35;;;;;;;1.23;1.13;;;;;;;20.57;51.00;96974.13;5011161;28;20202;-25
2023/12/25 03:50:01;;;;;;;1.30;1.20;;;;;;;20.57;51.03;96968.19;5011744;28;20272;-25
2023/12/25 03:52:28;;;;;;;1.50;1.40;;;;;;;20.57;51.25;96966.47;5004316;28;20253;-25
2023/12/25 03:54:54;;;;;;;1.30;1.20;;;;;;;20.58;51.30;96952.91;5010950;28;20275;-25
2023/12/25 03:57:21;;;;;;;1.50;1.40;;;;;;;20.58;51.28;96952.91;5009029;28;20265;-25
2023/12/25 03:59:47;;;;;;;1.40;1.30;;;;;;;20.53;51.28;96941.72;5008186;28;20615;-25
2023/12/25 04:02:14;;;;;;;1.40;1.30;;;;;;;20.59;51.19;96948.63;5001207;28;20214;-27
2023/12/25 04:04:41;;;;;;;1.30;1.13;;;;;;;20.59;51.21;96957.16;5010760;28;20202;-25
2023/12/25 04:07:07;;;;;;;1.37;1.27;;;;;;;20.58;51.13;96957.13;5011294;28;20717;-25
2023/12/25 04:09:34;;;;;;;3.27;1.40;;;;;;;20.57;51.16;96943.50;5011509;28;20202;-25
2023/12/25 04:12:00;;;;;;;1.60;1.50;;;;;;;20.58;51.20;96944.38;5011204;28;20245;-25
2023/12/25 04:14:28;;;;;;;1.47;1.37;;;;;;;20.57;51.25;96945.22;5008433;28;20194;-25
2023/12/25 04:16:54;;;;;;;1.50;1.40;;;;;;;20.54;50.82;96932.38;5009784;28;20209;-25
2023/12/25 04:19:21;;;;;;;1.07;1.07;;;;;;;20.56;51.20;96926.47;5005439;28;20203;-25
2023/12/25 04:21:48;;;;;;;1.13;1.13;;;;;;;20.57;51.17;96935.00;5005497;28;20230;-25
2023/12/25 04:24:14;;;;;;;1.20;1.10;;;;;;;20.55;51.18;96937.50;5009705;28;20226;-25
2023/12/25 04:26:41;;;;;;;1.50;1.40;;;;;;;20.56;51.16;96933.25;5011488;28;20202;-25
2023/12/25 04:29:07;;;;;;;1.27;1.17;;;;;;;20.55;51.22;96936.63;5007559;28;20203;-25
2023/12/25 04:31:34;;;;;;;1.50;1.40;;;;;;;20.55;51.25;96940.06;5006104;28;20235;-25
2023/12/25 04:34:01;;;;;;;1.50;1.40;;;;;;;20.55;51.32;96947.72;5011784;28;20206;-25
2023/12/25 04:36:28;;;;;;;1.13;1.13;;;;;;;20.50;51.23;96945.88;5011478;28;20642;-25
2023/12/25 04:38:54;;;;;;;1.50;1.40;;;;;;;20.56;50.87;96948.56;5011824;28;20614;-25
2023/12/25 04:41:21;;;;;;;1.50;1.40;;;;;;;20.55;51.07;96955.38;5011053;28;20668;-25
2023/12/25 04:43:50;;;;;;;1.37;1.27;;;;;;;20.56;51.13;96946.88;5011150;28;20198;-25
2023/12/25 04:46:17;;;;;;;1.37;1.27;;;;;;;20.57;51.02;96950.31;5011618;28;20194;-25
2023/12/25 04:48:44;;;;;;;1.33;1.23;;;;;;;20.56;51.14;96954.53;5010325;28;20657;-25
2023/12/25 04:51:11;;;;;;;1.50;1.40;;;;;;;20.56;51.07;96966.44;5010863;28;20621;-25
2023/12/25 04:53:37;;;;;;;1.53;1.43;;;;;;;20.57;51.12;96970.75;5001813;28;20289;-25
2023/12/25 04:56:04;;;;;;;1.33;1.27;;;;;;;20.57;51.33;96978.41;5006714;28;20677;-25
2023/12/25 04:58:31;;;;;;;1.40;1.30;;;;;;;20.56;51.06;96969.88;5011118;28;20653;-25
2023/12/25 05:00:57;;;;;;;1.30;1.20;;;;;;;20.56;51.35;96964.75;5011861;28;20362;-25
2023/12/25 05:03:24;;;;;;;1.30;1.20;;;;;;;20.57;50.95;96976.69;5003207;28;20203;-25
2023/12/25 05:05:51;;;;;;;1.37;1.27;;;;;;;20.57;51.26;96986.06;5011556;28;20198;-25
2023/12/25 05:08:20;;;;;;;1.57;1.40;;;;;;;20.57;51.24;96978.41;5010863;28;20207;-25
2023/12/25 05:10:46;;;;;;;1.33;1.23;;;;;;;20.57;51.21;96983.50;5010356;28;20205;-25
2023/12/25 05:13:13;;;;;;;1.30;1.20;;;;;;;20.57;51.28;96980.94;5011080;28;20273;-28
2023/12/25 05:15:40;;;;;;;1.50;1.40;;;;;;;20.57;51.13;96994.56;5010360;28;21054;-25
2023/12/25 05:18:06;;;;;;;1.50;1.40;;;;;;;20.57;51.48;96988.59;5011246;28;20198;-25
2023/12/25 05:20:33;;;;;;;1.40;1.30;;;;;;;20.56;51.22;97005.59;5009326;28;20202;-25
2023/12/25 05:22:59;;;;;;;1.30;1.20;;;;;;;20.56;50.86;96989.41;5005153;28;20297;-25
2023/12/25 05:25:26;;;;;;;1.30;1.20;;;;;;;20.56;51.13;96997.94;5009457;28;20747;-25
2023/12/25 05:27:53;;;;;;;1.37;1.13;;;;;;;20.56;51.17;97000.50;5010988;28;20369;-25
2023/12/25 05:30:20;;;;;;;1.20;1.17;;;;;;;20.56;51.08;96997.94;5010305;28;20209;-25
2023/12/25 05:32:47;;;;;;;1.17;1.17;;;;;;;20.57;50.73;97009.88;5007320;28;20241;-25
2023/12/25 05:35:13;;;;;;;1.63;1.53;;;;;;;20.58;50.80;97010.75;5012512;28;20221;-25
2023/12/25 05:37:40;;;;;;;1.33;1.23;;;;;;;20.58;50.94;97008.19;5006105;28;20211;-25
2023/12/25 05:40:07;;;;;;;1.37;1.27;;;;;;;20.58;51.02;97009.06;5008605;28;20562;-25
2023/12/25 05:42:34;;;;;;;1.30;1.20;;;;;;;20.57;51.08;97014.13;5004968;28;20273;-25
2023/12/25 05:45:00;;;;;;;1.50;1.40;;;;;;;20.58;51.12;97015.84;5015142;28;20228;-25
2023/12/25 05:47:27;;;;;;;1.40;1.30;;;;;;;20.57;51.11;97017.53;5009651;28;20578;-25
2023/12/25 05:49:54;;;;;;;1.30;1.20;;;;;;;20.58;51.29;97021.84;5012672;28;20198;-26
2023/12/25 05:52:20;;;;;;;1.30;1.20;;;;;;;20.57;51.09;97025.19;5029576;22;20230;-25
2023/12/25 05:54:47;;;;;;;1.30;1.23;;;;;;;20.56;50.91;97026.03;5010415;28;20235;-26
2023/12/25 05:57:13;;;;;;;1.10;1.10;;;;;;;20.58;51.12;97028.63;5002409;28;20206;-26
2023/12/25 05:59:40;;;;;;;1.40;1.30;;;;;;;20.58;51.16;97029.50;5001199;28;20661;-25
2023/12/25 06:02:07;;;;;;;1.20;1.20;;;;;;;20.58;50.98;97019.28;5007730;28;20226;-24
2023/12/25 06:04:33;;;;;;;1.53;1.43;;;;;;;20.57;51.06;97022.63;5003331;28;20970;-25
2023/12/25 06:07:00;;;;;;;1.30;1.20;;;;;;;20.56;51.09;97015.81;4997007;28;20203;-25
2023/12/25 06:09:26;;;;;;;1.50;1.40;;;;;;;20.57;51.07;97016.69;5003388;28;20234;-26
2023/12/25 06:11:53;;;;;;;1.30;1.20;;;;;;;20.57;51.06;97029.44;4995818;28;20686;-25
2023/12/25 06:14:20;;;;;;;2.20;1.57;;;;;;;20.56;51.04;97022.59;5010486;28;20202;-26
2023/12/25 06:16:46;;;;;;;1.07;1.07;;;;;;;20.56;51.41;97032.81;4994481;28;20321;-25
2023/12/25 06:19:13;;;;;;;1.47;1.27;;;;;;;20.56;50.96;97031.13;5000468;28;20253;-24
2023/12/25 06:21:40;;;;;;;1.43;1.33;;;;;;;20.56;50.88;97023.47;5010208;28;20230;-25
2023/12/25 06:24:06;;;;;;;1.10;1.10;;;;;;;20.56;50.92;97030.25;5002064;28;20258;-27
2023/12/25 06:26:33;;;;;;;1.83;1.43;;;;;;;20.57;50.77;97029.44;5003365;28;20325;-25
2023/12/25 06:29:00;;;;;;;1.30;1.20;;;;;;;20.57;50.86;97019.25;5006289;28;20203;-26
2023/12/25 06:31:26;;;;;;;1.20;1.10;;;;;;;20.57;50.95;97024.34;5002867;28;20214;-25
2023/12/25 06:33:53;;;;;;;1.40;1.30;;;;;;;20.57;50.98;97016.69;4998550;28;20202;-24
2023/12/25 06:36:19;;;;;;;1.73;1.40;;;;;;;20.56;50.69;97026.03;5001393;28;20710;-25
2023/12/25 06:38:47;;;;;;;1.40;1.30;;;;;;;20.56;50.90;97020.03;4994699;28;20230;-25
2023/12/25 06:41:13;;;;;;;1.37;1.27;;;;;;;20.56;50.77;97028.56;5007960;28;20213;-25
2023/12/25 06:43:40;;;;;;;1.00;1.00;;;;;;;20.56;50.92;97033.69;5002716;28;20771;-25
2023/12/25 06:46:06;;;;;;;1.30;1.20;;;;;;;20.58;50.86;97026.06;5004989;28;20205;-25
2023/12/25 06:48:33;;;;;;;1.43;1.30;;;;;;;20.58;50.96;97003.09;5011221;28;20329;-26
2023/12/25 06:51:00;;;;;;;1.10;1.10;;;;;;;20.57;51.03;97001.38;4998672;28;20241;-25
2023/12/25 06:53:26;;;;;;;1.10;1.10;;;;;;;20.53;51.06;97002.97;5011086;28;20609;-25
2023/12/25 06:55:53;;;;;;;1.13;1.10;;;;;;;20.56;50.98;97012.38;4998312;28;20229;-26
2023/12/25 06:58:20;;;;;;;1.30;1.20;;;;;;;20.57;51.07;97001.38;5008178;28;20276;-26
2023/12/25 07:00:46;;;;;;;1.30;1.20;;;;;;;20.57;50.95;97003.91;5004646;28;20199;-25
2023/12/25 07:03:13;;;;;;;1.50;1.40;;;;;;;20.56;50.97;97009.84;5002164;28;20222;-26
2023/12/25 07:05:40;;;;;;;1.10;1.00;;;;;;;20.56;50.96;97015.81;5005423;28;20236;-25
2023/12/25 07:08:06;;;;;;;1.87;1.20;;;;;;;20.55;51.05;97026.88;5002282;28;20203;-25
2023/12/25 07:10:33;;;;;;;1.23;1.10;;;;;;;20.56;50.87;97032.81;5004713;28;20655;-26
2023/12/25 07:13:00;;;;;;;1.40;1.30;;;;;;;20.55;51.01;97037.06;5002467;28;20770;-25
2023/12/25 07:15:28;;;;;;;1.00;1.00;;;;;;;20.56;50.70;97036.22;5004599;28;20782;-25
2023/12/25 07:17:54;;;;;;;1.60;1.40;;;;;;;20.56;50.75;97038.78;4996290;28;20207;-25
2023/12/25 07:20:21;;;;;;;1.00;1.00;;;;;;;20.49;50.71;97029.22;4998773;28;20616;-25
2023/12/25 07:22:52;;;;;;;1.40;1.30;;;;;;;20.58;50.58;97036.28;5000147;28;20226;-25
2023/12/25 07:25:18;;;;;;;1.20;1.20;;;;;;;20.57;50.81;97040.50;5001952;28;20207;-25
2023/12/25 07:27:45;;;;;;;1.30;1.20;;;;;;;20.56;50.95;97037.91;5000866;28;20238;-26
2023/12/25 07:30:12;;;;;;;1.13;1.13;;;;;;;20.56;50.78;97054.09;5021986;28;20202;-25
2023/12/25 07:32:40;;;;;;;1.20;1.17;;;;;;;20.56;50.92;97056.66;4995669;28;20297;-27
2023/12/25 07:35:07;;;;;;;1.27;1.20;;;;;;;20.56;50.78;97061.75;5001203;28;20233;-25
2023/12/25 07:37:34;;;;;;;1.40;1.30;;;;;;;20.56;50.80;97071.97;4996918;28;20202;-25
2023/12/25 07:40:01;;;;;;;1.13;1.13;;;;;;;20.56;51.01;97066.88;5007613;28;20257;-26
2023/12/25 07:42:27;;;;;;;1.13;1.10;;;;;;;20.57;50.81;97067.75;4994271;28;20233;-25
2023/12/25 07:44:54;;;;;;;1.40;1.30;;;;;;;20.56;50.89;97077.06;4996897;28;20214;-27
2023/12/25 07:47:20;;;;;;;1.20;1.20;;;;;;;20.55;50.89;97070.25;5004275;28;20198;-24
2023/12/25 07:49:47;;;;;;;1.10;1.10;;;;;;;20.55;50.97;97072.81;4999758;28;20246;-25
2023/12/25 07:52:14;;;;;;;1.30;1.20;;;;;;;20.54;50.93;97071.06;5005479;28;20309;-25
2023/12/25 07:54:41;;;;;;;1.37;1.27;;;;;;;20.54;50.97;97070.22;4995465;28;20202;-26
2023/12/25 07:57:08;;;;;;;1.40;1.30;;;;;;;20.54;50.71;97071.06;4999160;28;20229;-25
2023/12/25 07:59:34;;;;;;;1.30;1.20;;;;;;;20.54;50.84;97078.72;5001369;28;20225;-25
2023/12/25 08:02:01;;;;;;;2.90;1.00;;;;;;;20.54;50.82;97076.16;5007359;28;20764;-25
2023/12/25 08:04:27;;;;;;;1.50;1.40;;;;;;;20.31;50.51;97033.00;5005263;28;20206;-23
2023/12/25 08:06:54;;;;;;;1.30;1.20;;;;;;;20.57;50.82;97078.78;5000689;28;20201;-25
2023/12/25 08:09:21;;;;;;;1.40;1.30;;;;;;;20.59;50.74;97086.50;5005967;28;20202;-26
2023/12/25 08:11:47;;;;;;;1.37;1.27;;;;;;;20.59;50.54;97079.72;4996907;28;20225;-26
2023/12/25 08:14:14;;;;;;;1.27;1.17;;;;;;;20.59;50.71;97076.28;5008720;28;20435;-25
2023/12/25 08:16:41;;;;;;;1.20;1.10;;;;;;;20.60;50.61;97078.88;5003401;28;20214;-25
2023/12/25 08:19:07;;;;;;;1.30;1.20;;;;;;;20.63;50.74;97075.56;5005755;28;20298;-26
2023/12/25 08:21:34;;;;;;;1.43;1.30;;;;;;;20.63;50.85;97073.84;5009104;28;20229;-25
2023/12/25 08:24:01;;;;;;;1.27;1.17;;;;;;;20.64;50.84;97078.16;4995276;28;20277;-26
2023/12/25 08:26:27;;;;;;;1.30;1.20;;;;;;;20.62;50.76;97076.34;4999633;28;20673;-26
2023/12/25 08:28:54;;;;;;;1.20;1.10;;;;;;;20.64;50.58;97085.81;5000088;28;20203;-25
2023/12/25 08:31:21;;;;;;;1.10;1.10;;;;;;;20.64;50.68;97087.50;5005492;28;20253;-25
2023/12/25 08:33:47;;;;;;;1.10;1.10;;;;;;;20.65;50.82;97101.97;5007614;28;20214;-26
2023/12/25 08:36:14;;;;;;;1.10;1.10;;;;;;;20.63;51.00;97096.00;5004742;28;20234;-25
2023/12/25 08:38:41;;;;;;;1.10;1.10;;;;;;;20.63;50.92;97094.28;5001265;28;20285;-26
2023/12/25 08:41:07;;;;;;;1.10;1.10;;;;;;;20.63;50.58;97091.72;5004296;28;20725;-26
2023/12/25 08:43:34;;;;;;;1.37;1.27;;;;;;;20.63;50.71;97094.28;4996827;28;20293;-26
2023/12/25 08:46:00;;;;;;;1.50;1.40;;;;;;;20.62;50.73;97096.78;4993563;28;20242;-26
2023/12/25 08:48:27;;;;;;;1.30;1.20;;;;;;;20.62;50.54;97100.22;4997117;28;20234;-25
2023/12/25 08:50:54;;;;;;;1.10;1.10;;;;;;;20.61;50.57;97103.59;4995425;28;20214;-25
2023/12/25 08:53:21;;;;;;;1.03;0.93;;;;;;;20.61;50.58;97097.63;5003388;28;20231;-25
2023/12/25 08:55:48;;;;;;;1.30;1.20;;;;;;;20.61;50.61;97093.38;5000685;28;20641;-26
2023/12/25 08:58:14;;;;;;;1.40;1.30;;;;;;;20.54;50.93;97090.63;5005506;28;20665;-26
2023/12/25 09:00:41;;;;;;;1.13;1.10;;;;;;;20.62;50.73;97114.66;4993389;28;20210;-26
2023/12/25 09:03:08;;;;;;;1.40;1.30;;;;;;;20.61;50.45;97113.81;5000213;28;20592;-26
2023/12/25 09:05:35;;;;;;;1.10;1.10;;;;;;;20.61;50.44;97121.47;5000810;28;20296;-26
2023/12/25 09:08:02;;;;;;;1.13;1.10;;;;;;;20.60;50.52;97140.16;5008867;28;20510;-25
2023/12/25 09:10:28;;;;;;;1.20;1.10;;;;;;;20.61;50.50;97133.38;5006244;28;20670;-25
2023/12/25 09:12:55;;;;;;;1.30;1.20;;;;;;;20.60;50.46;97141.88;5001039;28;20230;-25
2023/12/25 09:15:22;;;;;;;1.90;1.27;;;;;;;20.60;50.55;97146.97;5002450;28;20199;-26
2023/12/25 09:17:50;;;;;;;1.10;1.10;;;;;;;20.60;50.61;97145.25;5009520;28;20684;-25
2023/12/25 09:20:17;;;;;;;1.00;1.00;;;;;;;20.59;50.75;97148.66;5006845;28;20206;-25
2023/12/25 09:22:44;;;;;;;1.23;1.13;;;;;;;20.61;50.56;97154.66;5000824;28;20699;-25
2023/12/25 09:25:11;;;;;;;1.37;1.27;;;;;;;20.59;50.58;97156.31;5004629;28;20210;-25
2023/12/25 09:27:37;;;;;;;1.20;1.10;;;;;;;20.59;50.19;97165.63;5005334;28;20662;-26
2023/12/25 09:30:04;;;;;;;1.33;1.23;;;;;;;20.59;50.64;97165.63;5002112;28;20269;-26
2023/12/25 09:32:31;;;;;;;1.30;1.20;;;;;;;20.56;50.44;97174.09;5000115;28;20273;-25
2023/12/25 09:34:58;;;;;;;1.20;1.20;;;;;;;20.58;50.64;97176.69;5011318;28;20203;-25
2023/12/25 09:37:25;;;;;;;1.27;1.17;;;;;;;20.56;50.54;97176.63;5005542;28;20219;-26
2023/12/25 09:39:53;;;;;;;2.40;1.30;;;;;;;20.55;50.74;97172.38;5007868;28;20221;-26
2023/12/25 09:42:19;;;;;;;1.30;1.20;;;;;;;20.56;50.52;97175.75;5005600;28;20242;-26
2023/12/25 09:44:48;;;;;;;1.20;1.10;;;;;;;20.53;50.32;97160.38;5004824;28;20586;-25
2023/12/25 09:47:15;;;;;;;1.33;1.23;;;;;;;20.55;50.12;97158.72;4984386;28;20203;-26
2023/12/25 09:49:41;;;;;;;1.40;1.27;;;;;;;20.55;49.96;97156.19;4987478;28;20256;-26
2023/12/25 09:52:08;;;;;;;1.27;1.17;;;;;;;20.52;49.22;97156.94;4995633;28;20237;-24
2023/12/25 09:54:34;;;;;;;1.40;1.30;;;;;;;20.53;48.42;97152.72;5012249;28;20207;-25
2023/12/25 09:57:01;;;;;;;2.97;1.40;;;;;;;20.50;48.87;97152.63;5001120;28;20229;-26
2023/12/25 09:59:29;;;;;;;1.50;1.40;;;;;;;20.53;49.01;97157.81;5003339;28;20610;-26
2023/12/25 10:01:59;;;;;;;1.50;1.40;;;;;;;20.44;49.06;97148.22;5002804;28;20732;-26
2023/12/25 10:04:27;;;;;;;1.37;1.27;;;;;;;20.50;49.43;97142.41;5002011;28;20207;-25
2023/12/25 10:06:53;;;;;;;1.40;1.30;;;;;;;20.51;49.47;97137.34;4996910;28;20731;-27
2023/12/25 10:09:20;;;;;;;1.40;1.30;;;;;;;20.51;49.65;97137.34;5010335;28;20198;-25
2023/12/25 10:11:46;;;;;;;1.23;1.20;;;;;;;20.52;49.53;97141.63;5012982;28;20659;-25
2023/12/25 10:14:13;;;;;;;2.03;1.23;;;;;;;20.51;49.54;97127.13;5009398;28;20195;-27
2023/12/25 10:16:41;;;;;;;1.77;1.40;;;;;;;20.52;49.62;97139.06;5003109;28;20302;-27
2023/12/25 10:19:07;;;;;;;1.23;1.20;;;;;;;20.52;49.87;97135.66;5006964;28;20202;-26
2023/12/25 10:21:44;;;;;;;6.23;1.23;;;;;;;20.50;49.76;97143.28;5002767;28;20211;-23
2023/12/25 10:24:14;;;;;;;1.20;1.20;;;;;;;20.51;49.80;97150.13;5000551;28;20199;-27
2023/12/25 10:26:46;;;;;;;0.90;0.90;;;;;;;20.50;49.74;97148.41;5012977;28;20219;-27
2023/12/25 10:29:13;;;;;;;1.30;1.20;;;;;;;20.51;49.83;97156.91;5006758;28;20203;-26
2023/12/25 10:31:43;;;;;;;1.57;1.47;;;;;;;20.51;49.81;97142.44;5005790;28;20705;-25
2023/12/25 10:34:10;;;;;;;2.50;1.43;;;;;;;20.51;49.73;97139.91;5011997;28;20289;-25
2023/12/25 10:36:37;;;;;;;1.33;1.20;;;;;;;20.51;49.70;97139.91;5000032;28;20598;-26
2023/12/25 10:39:04;;;;;;;1.50;1.40;;;;;;;20.51;49.63;97134.78;5003380;28;20198;-26
2023/12/25 10:41:33;;;;;;;1.37;1.27;;;;;;;20.52;49.84;97128.00;5013888;28;20290;-25
2023/12/25 10:44:02;;;;;;;1.50;1.40;;;;;;;20.52;49.95;97122.91;4998740;28;20206;-26
2023/12/25 10:46:36;;;;;;;1.20;1.20;;;;;;;20.50;49.99;97127.97;5009690;28;20297;-26
2023/12/25 10:49:04;;;;;;;1.33;1.23;;;;;;;20.51;49.79;97134.78;5006310;28;20208;-26
2023/12/25 10:51:33;;;;;;;1.40;1.30;;;;;;;20.52;49.78;97138.22;5013322;28;20289;-27
2023/12/25 10:54:01;;;;;;;1.00;1.00;;;;;;;20.52;49.97;97125.47;4995744;28;20638;-25
2023/12/25 10:56:32;;;;;;;1.20;1.10;;;;;;;20.52;50.01;97120.34;5009531;28;20222;-25
2023/12/25 10:59:19;;;;;;;1.07;1.07;;;;;;;20.52;50.03;97105.03;5003591;28;20294;-27
2023/12/25 11:01:48;;;;;;;1.53;1.20;;;;;;;20.50;49.85;97099.91;5005325;28;20217;-26
2023/12/25 11:04:15;;;;;;;1.40;1.30;;;;;;;20.49;49.77;97089.66;5002116;28;20626;-25
2023/12/25 11:06:45;;;;;;;1.20;1.10;;;;;;;20.51;49.87;97082.88;4996480;28;20681;-26
2023/12/25 11:09:12;;;;;;;1.40;1.30;;;;;;;20.50;49.90;97086.25;5003618;28;20221;-26
2023/12/25 11:11:39;;;;;;;1.27;1.20;;;;;;;20.50;50.08;97091.38;5000017;28;20273;-25
2023/12/25 11:14:08;;;;;;;1.40;1.30;;;;;;;20.50;49.82;97092.25;5004612;28;20202;-26
2023/12/25 11:16:35;;;;;;;1.33;1.23;;;;;;;20.50;50.32;97084.56;4998857;28;20258;-25
2023/12/25 11:19:02;;;;;;;1.10;1.10;;;;;;;20.48;49.79;97082.78;5000382;28;20208;-26
2023/12/25 11:21:30;;;;;;;4.40;1.37;;;;;;;20.50;49.94;97083.69;4997827;28;20298;-25
2023/12/25 11:23:59;;;;;;;1.10;1.10;;;;;;;20.51;49.95;97086.28;5002003;28;20813;-26
2023/12/25 11:26:27;;;;;;;1.27;1.17;;;;;;;20.51;49.93;97086.28;5001401;28;20195;-25
2023/12/25 11:29:02;;;;;;;2.00;1.20;;;;;;;20.52;49.80;97082.06;5004666;28;20631;-25
2023/12/25 11:31:29;;;;;;;1.13;1.10;;;;;;;20.52;49.97;97082.06;5004977;28;20209;-25
2023/12/25 11:34:17;;;;;;;1.00;1.00;;;;;;;20.51;50.11;97083.75;5002893;28;20659;-25